Time;durP1;ratioP1;P1;durP2;ratioP2;P2;SDS_P1;SDS_P2;PMS_P1;PMS_P2;Temp;Humidity;BMP_temperature;BMP_pressure;BME280_temperature;BME280_humidity;BME280_pressure;Samples;Min_cycle;Max_cycle;Signal;HPM_P1;HPM_P2
2021/11/03 00:00:33;;;;;;;24.23;15.43;;;;;;;7.47;78.85;96106.11;1735650;81;25774;-91
2021/11/03 00:03:04;;;;;;;34.38;18.25;;;;;;;7.48;78.85;96112.30;1738759;81;27085;-91
2021/11/03 00:05:31;;;;;;;30.95;17.37;;;;;;;7.49;78.84;96112.05;1732433;81;25941;-91
2021/11/03 00:07:59;;;;;;;43.20;19.85;;;;;;;7.45;78.83;96110.88;1737414;81;25706;-90
2021/11/03 00:10:26;;;;;;;23.10;15.10;;;;;;;7.44;78.85;96114.59;1738105;81;26182;-90
2021/11/03 00:12:52;;;;;;;19.00;13.62;;;;;;;7.43;78.81;96112.95;1724162;81;25833;-91
2021/11/03 00:15:19;;;;;;;18.23;12.88;;;;;;;7.42;78.82;96117.20;1731666;81;28310;-90
2021/11/03 00:17:46;;;;;;;15.35;10.88;;;;;;;7.43;78.78;96118.84;1731687;81;25731;-91
2021/11/03 00:20:13;;;;;;;16.82;11.85;;;;;;;7.43;78.71;96116.98;1732125;81;25774;-91
2021/11/03 00:22:40;;;;;;;17.25;11.78;;;;;;;7.45;78.64;96119.45;1730848;82;26096;-90
2021/11/03 00:25:08;;;;;;;16.20;11.68;;;;;;;7.44;78.58;96126.67;1721986;82;25790;-91
2021/11/03 00:27:34;;;;;;;33.02;24.18;;;;;;;7.44;78.59;96125.34;1721873;82;27500;-91
2021/11/03 00:30:03;;;;;;;36.23;23.98;;;;;;;7.43;78.58;96122.35;1721747;82;25912;-91
2021/11/03 00:32:29;;;;;;;24.25;14.78;;;;;;;7.42;78.55;96132.78;1721778;82;25839;-90
2021/11/03 00:34:56;;;;;;;22.32;13.10;;;;;;;7.41;78.58;96143.22;1721734;82;26082;-91
2021/11/03 00:37:23;;;;;;;24.70;14.20;;;;;;;7.39;78.68;96145.30;1724272;81;25814;-91
2021/11/03 00:39:49;;;;;;;20.02;13.08;;;;;;;7.38;78.67;96144.18;1741355;81;27607;-91
2021/11/03 00:42:16;;;;;;;19.50;12.03;;;;;;;7.32;78.69;96145.91;1731832;81;26034;-91
2021/11/03 00:44:43;;;;;;;20.68;13.13;;;;;;;7.33;78.71;96149.41;1739215;81;25764;-90
2021/11/03 00:47:10;;;;;;;20.32;13.60;;;;;;;7.28;78.76;96151.92;1730304;82;26899;-91
2021/11/03 00:49:37;;;;;;;17.12;12.00;;;;;;;7.29;78.82;96154.39;1721709;83;25666;-91
2021/11/03 00:52:05;;;;;;;16.07;11.80;;;;;;;7.29;78.85;96150.36;1721781;82;28360;-91
2021/11/03 00:54:31;;;;;;;20.37;13.08;;;;;;;7.30;78.92;96148.50;1728283;81;25928;-91
2021/11/03 00:56:58;;;;;;;20.10;13.03;;;;;;;7.31;78.95;96155.52;1727528;81;25658;-91
2021/11/03 00:59:24;;;;;;;17.85;12.00;;;;;;;7.27;78.90;96144.39;1728588;82;26700;-90
2021/11/03 01:01:51;;;;;;;19.32;13.05;;;;;;;7.23;78.95;96154.77;1725087;81;25772;-90
2021/11/03 01:04:18;;;;;;;21.90;13.22;;;;;;;7.22;79.01;96154.98;1721866;82;28468;-90
2021/11/03 01:06:45;;;;;;;17.20;11.65;;;;;;;7.22;78.99;96167.06;1723141;81;25724;-91
2021/11/03 01:09:12;;;;;;;16.45;11.00;;;;;;;7.21;78.97;96168.10;1746760;81;25805;-91
2021/11/03 01:11:38;;;;;;;15.03;10.65;;;;;;;7.20;78.99;96170.48;1739676;81;26022;-91
2021/11/03 01:14:07;;;;;;;12.82;9.75;;;;;;;7.22;78.88;96169.75;1747485;81;25766;-91
2021/11/03 01:16:34;;;;;;;15.53;10.35;;;;;;;7.23;78.81;96164.69;1736187;81;27445;-90
2021/11/03 01:19:01;;;;;;;12.33;9.53;;;;;;;7.24;78.81;96173.04;1739043;81;25938;-91
2021/11/03 01:21:28;;;;;;;15.05;10.65;;;;;;;7.22;78.86;96172.44;1732847;82;25773;-92
2021/11/03 01:23:55;;;;;;;16.07;11.28;;;;;;;7.20;78.84;96167.80;1751294;80;26496;-91
2021/11/03 01:26:22;;;;;;;16.48;11.80;;;;;;;7.18;78.86;96170.70;1750377;81;25747;-91
2021/11/03 01:28:49;;;;;;;18.67;12.35;;;;;;;7.17;78.87;96173.59;1727852;81;27644;-91
2021/11/03 01:31:16;;;;;;;13.45;10.38;;;;;;;7.17;78.81;96184.34;1735360;81;25291;-91
2021/11/03 01:33:42;;;;;;;15.03;10.63;;;;;;;7.14;78.85;96180.73;1744550;81;25751;-91
2021/11/03 01:36:11;;;;;;;14.63;11.20;;;;;;;7.12;78.83;96176.14;1736120;81;25981;-90
2021/11/03 01:38:38;;;;;;;14.93;11.05;;;;;;;7.09;78.81;96168.52;1739231;80;25749;-90
2021/11/03 01:41:05;;;;;;;15.65;11.10;;;;;;;7.10;78.74;96174.19;1727598;81;27473;-90
2021/11/03 01:43:48;;;;;;;14.38;10.85;;;;;;;7.06;78.68;96174.31;1732009;81;25859;-90
2021/11/03 01:46:29;;;;;;;14.28;10.23;;;;;;;7.05;78.64;96172.67;1745074;81;25438;-88
2021/11/03 01:49:22;;;;;;;14.53;10.45;;;;;;;7.03;78.62;96181.45;1727579;81;25958;-89
2021/11/03 01:52:08;;;;;;;14.58;11.57;;;;;;;7.03;78.61;96190.84;1721128;83;25811;-88
2021/11/03 01:54:46;;;;;;;12.63;10.20;;;;;;;7.03;78.57;96200.23;1727674;82;27424;-89
2021/11/03 01:57:20;;;;;;;13.70;10.35;;;;;;;6.92;78.47;96196.92;1727446;81;25795;-89
2021/11/03 01:59:52;;;;;;;13.85;10.40;;;;;;;6.84;78.48;96193.99;1727656;81;25772;-89
2021/11/03 02:02:21;;;;;;;13.83;10.70;;;;;;;6.76;78.49;96200.97;1727735;81;26692;-88
2021/11/03 02:04:48;;;;;;;13.83;10.40;;;;;;;6.70;78.61;96197.28;1735891;81;25768;-88
2021/11/03 02:07:22;;;;;;;12.98;10.03;;;;;;;6.67;78.67;96191.52;1727511;81;28045;-89
2021/11/03 02:09:49;;;;;;;13.58;10.60;;;;;;;6.63;78.67;96191.67;1738658;81;25893;-89
2021/11/03 02:12:26;;;;;;;17.12;11.90;;;;;;;6.64;78.70;96192.77;1727383;81;25354;-89
2021/11/03 02:14:54;;;;;;;15.05;10.48;;;;;;;6.64;78.61;96192.77;1727266;81;26051;-89
2021/11/03 02:17:23;;;;;;;15.58;11.75;;;;;;;6.65;78.61;96200.30;1732502;81;25849;-89
2021/11/03 02:19:55;;;;;;;14.47;10.53;;;;;;;6.65;78.47;96214.52;1727624;82;27336;-89
2021/11/03 02:22:27;;;;;;;15.30;11.43;;;;;;;6.62;78.40;96221.68;1719276;81;25749;-88
2021/11/03 02:25:04;;;;;;;19.60;12.18;;;;;;;6.52;78.20;96226.66;1727045;81;25738;-89
2021/11/03 02:27:34;;;;;;;17.67;11.85;;;;;;;6.39;78.27;96222.22;1727420;81;26026;-88
2021/11/03 02:30:00;;;;;;;15.53;10.30;;;;;;;6.37;78.40;96223.46;1738432;81;26016;-88
2021/11/03 02:32:31;;;;;;;13.98;9.98;;;;;;;6.37;78.39;96224.80;1733102;81;26996;-89
2021/11/03 02:34:59;;;;;;;11.78;9.80;;;;;;;6.34;78.36;96222.54;1729813;81;25761;-89
2021/11/03 02:37:36;;;;;;;12.40;9.90;;;;;;;6.31;78.24;96234.50;1745689;80;25704;-89
2021/11/03 02:40:34;;;;;;;12.30;9.43;;;;;;;6.23;78.08;96232.08;1726191;81;27530;-89
2021/11/03 02:43:30;;;;;;;11.70;9.68;;;;;;;6.12;77.99;96231.40;1727536;83;25818;-88
2021/11/03 02:46:00;;;;;;;11.78;9.50;;;;;;;6.01;77.95;96228.86;1737696;81;27455;-88
2021/11/03 02:48:30;;;;;;;12.60;9.73;;;;;;;5.97;78.09;96224.12;1680809;82;25874;-89
2021/11/03 02:51:18;;;;;;;12.82;9.85;;;;;;;5.92;77.93;96215.89;1730240;81;25737;-88
2021/11/03 02:53:50;;;;;;;13.48;9.93;;;;;;;5.79;77.94;96210.88;1735629;81;26021;-88
2021/11/03 02:56:21;;;;;;;12.58;9.38;;;;;;;5.77;78.13;96206.76;1738773;81;25745;-89
2021/11/03 02:58:49;;;;;;;13.10;10.05;;;;;;;5.74;78.05;96205.83;1727938;81;27394;-89
2021/11/03 03:01:42;;;;;;;11.83;9.43;;;;;;;5.71;78.04;96202.23;1727511;83;25840;-87
2021/11/03 03:04:17;;;;;;;14.75;9.95;;;;;;;5.64;77.98;96202.78;1746196;81;25743;-88
2021/11/03 03:06:44;;;;;;;13.65;9.78;;;;;;;5.63;78.18;96204.63;1735470;81;25984;-87
2021/11/03 03:09:11;;;;;;;12.18;9.80;;;;;;;5.62;78.16;96207.51;1739063;81;25764;-88
2021/11/03 03:11:42;;;;;;;14.83;9.68;;;;;;;5.56;78.02;96210.49;1728296;81;27496;-88
2021/11/03 03:14:10;;;;;;;13.38;9.85;;;;;;;5.50;78.05;96219.89;1734380;81;25697;-88
2021/11/03 03:16:36;;;;;;;16.73;10.63;;;;;;;5.44;78.15;96219.67;1721805;82;25717;-88
2021/11/03 03:19:03;;;;;;;13.83;11.10;;;;;;;5.40;78.12;96222.48;1721690;82;25941;-88
2021/11/03 03:21:32;;;;;;;18.17;12.90;;;;;;;5.34;78.02;96221.13;1721603;83;25748;-88
2021/11/03 03:24:02;;;;;;;17.87;12.18;;;;;;;5.33;78.19;96229.67;1741096;81;27433;-88
2021/11/03 03:26:29;;;;;;;13.60;11.20;;;;;;;5.31;78.13;96226.38;1736065;81;26001;-88
2021/11/03 03:28:56;;;;;;;13.93;10.25;;;;;;;5.26;78.04;96226.19;1736270;81;25788;-88
2021/11/03 03:31:25;;;;;;;16.32;11.48;;;;;;;5.23;78.10;96225.77;1721769;83;26835;-88
2021/11/03 03:33:56;;;;;;;15.85;10.95;;;;;;;5.21;78.15;96229.16;1728545;81;25944;-88
2021/11/03 03:36:23;;;;;;;19.12;11.18;;;;;;;5.14;78.18;96237.20;1736384;81;27421;-89
2021/11/03 03:38:51;;;;;;;15.20;10.45;;;;;;;5.14;78.24;96245.23;1731262;81;25782;-90
2021/11/03 03:41:21;;;;;;;13.15;9.55;;;;;;;5.12;78.12;96247.28;1731910;81;25902;-91
2021/11/03 03:43:48;;;;;;;13.83;10.58;;;;;;;5.07;77.91;96255.91;1723945;81;26203;-90
2021/11/03 03:46:15;;;;;;;13.65;10.78;;;;;;;5.00;77.81;96265.79;1730440;81;25745;-90
2021/11/03 03:48:42;;;;;;;14.20;10.30;;;;;;;4.89;77.76;96269.06;1701741;82;28425;-90
2021/11/03 03:51:11;;;;;;;19.52;11.40;;;;;;;4.79;77.82;96271.83;1721596;82;26330;-89
2021/11/03 03:53:38;;;;;;;16.62;11.12;;;;;;;4.74;77.85;96267.59;1721719;81;26074;-88
2021/11/03 03:56:05;;;;;;;15.18;10.50;;;;;;;4.70;78.04;96259.17;1734594;81;26188;-89
2021/11/03 03:58:32;;;;;;;13.13;9.83;;;;;;;4.66;78.00;96258.75;1738402;81;25807;-89
2021/11/03 04:00:59;;;;;;;15.35;10.25;;;;;;;4.63;78.12;96268.50;1721944;82;27237;-89
2021/11/03 04:03:26;;;;;;;16.35;10.55;;;;;;;4.62;78.33;96262.84;1724937;81;25875;-89
2021/11/03 04:05:55;;;;;;;17.17;10.65;;;;;;;4.62;78.43;96266.84;1721711;82;25757;-90
2021/11/03 04:08:24;;;;;;;13.43;9.30;;;;;;;4.63;78.39;96265.83;1728781;81;26134;-90
2021/11/03 04:10:51;;;;;;;13.88;9.00;;;;;;;4.66;78.30;96269.95;1731405;81;25768;-91
2021/11/03 04:13:24;;;;;;;12.28;9.50;;;;;;;4.61;78.14;96274.55;1724862;82;28152;-91
2021/11/03 04:15:47;;;;;;;13.15;9.40;;;;;;;4.57;78.22;96269.31;1725150;81;26008;-90
2021/11/03 04:18:14;;;;;;;14.83;10.35;;;;;;;4.54;78.33;96271.05;1725486;81;25911;-91
2021/11/03 04:20:42;;;;;;;13.35;9.28;;;;;;;4.53;78.36;96268.06;1724550;83;26414;-91
2021/11/03 04:23:09;;;;;;;13.18;9.50;;;;;;;4.46;78.22;96268.56;1730907;81;25784;-90
2021/11/03 04:25:36;;;;;;;12.65;9.25;;;;;;;4.45;78.40;96272.27;1724940;82;28584;-89
2021/11/03 04:28:03;;;;;;;12.53;9.60;;;;;;;4.41;78.37;96280.36;1744697;81;25908;-91
2021/11/03 04:30:31;;;;;;;13.18;9.48;;;;;;;4.35;78.32;96275.28;1733485;81;25741;-90
2021/11/03 04:32:58;;;;;;;13.60;9.43;;;;;;;4.29;78.22;96278.77;1724879;81;26707;-91
2021/11/03 04:35:24;;;;;;;13.03;9.78;;;;;;;4.25;78.17;96279.36;1731169;80;25860;-90
2021/11/03 04:37:51;;;;;;;13.88;9.93;;;;;;;4.23;78.40;96276.05;1730249;81;27592;-90
2021/11/03 04:40:20;;;;;;;13.40;8.78;;;;;;;4.21;78.41;96274.13;1724900;82;25315;-90
2021/11/03 04:42:47;;;;;;;11.45;8.60;;;;;;;4.23;78.52;96282.73;1742671;81;25728;-90
2021/11/03 04:45:14;;;;;;;14.68;8.43;;;;;;;4.24;78.49;96282.54;1725992;81;26043;-90
2021/11/03 04:47:41;;;;;;;10.98;8.43;;;;;;;4.27;78.52;96275.98;1737193;81;25829;-89
2021/11/03 04:50:16;;;;;;;12.85;8.93;;;;;;;4.28;78.56;96282.97;1724994;83;27558;-91
2021/11/03 04:52:42;;;;;;;12.50;9.08;;;;;;;4.29;78.72;96276.61;1737010;81;25334;-89
2021/11/03 04:55:09;;;;;;;11.43;7.95;;;;;;;4.27;78.81;96275.98;1724416;81;25935;-90
2021/11/03 04:57:36;;;;;;;12.30;9.08;;;;;;;4.30;78.97;96284.94;1725077;83;26012;-90
2021/11/03 05:00:08;;;;;;;20.90;10.32;;;;;;;4.28;78.89;96288.31;1737556;81;25791;-90
2021/11/03 05:02:35;;;;;;;;;;;;;;;4.26;78.83;96292.52;1736012;80;27958;-90
2021/11/03 05:05:01;;;;;;;16.30;10.28;;;;;;;4.21;78.77;96294.16;1722103;82;25753;-90
2021/11/03 05:07:28;;;;;;;19.70;12.30;;;;;;;4.16;78.72;96294.73;1719066;82;25860;-90
2021/11/03 05:09:55;;;;;;;16.95;10.40;;;;;;;4.17;78.73;96297.73;1738885;80;26756;-89
2021/11/03 05:12:22;;;;;;;17.17;10.85;;;;;;;4.15;78.63;96298.42;1726333;81;25745;-90
2021/11/03 05:14:48;;;;;;;15.88;11.00;;;;;;;4.14;78.59;96302.63;1724959;81;28097;-91
2021/11/03 05:17:15;;;;;;;14.60;9.38;;;;;;;4.12;78.57;96296.66;1725131;81;25846;-90
2021/11/03 05:19:41;;;;;;;14.83;10.63;;;;;;;4.09;78.45;96306.42;1725258;81;26045;-89
2021/11/03 05:22:08;;;;;;;16.12;10.35;;;;;;;4.03;78.51;96296.52;1726795;81;26159;-90
2021/11/03 05:24:35;;;;;;;15.08;10.78;;;;;;;4.02;78.62;96293.53;1708867;82;25793;-89
2021/11/03 05:27:01;;;;;;;14.25;8.68;;;;;;;3.96;78.52;96298.66;1726786;81;27536;-89
2021/11/03 05:29:28;;;;;;;16.95;9.00;;;;;;;3.93;78.60;96300.38;1727508;82;26565;-88
2021/11/03 05:31:54;;;;;;;12.53;8.10;;;;;;;3.95;78.70;96298.84;1729561;81;26419;-89
2021/11/03 05:34:21;;;;;;;15.80;10.40;;;;;;;3.94;78.66;96297.19;1727127;81;26634;-89
2021/11/03 05:36:48;;;;;;;16.32;10.70;;;;;;;3.91;78.62;96300.25;1724933;81;25745;-89
2021/11/03 05:39:17;;;;;;;14.47;10.15;;;;;;;3.91;78.78;96302.41;1740750;81;28036;-90
2021/11/03 05:41:44;;;;;;;16.25;10.25;;;;;;;3.88;78.77;96307.31;1732071;81;25760;-89
2021/11/03 05:44:15;;;;;;;16.00;10.80;;;;;;;3.87;78.80;96319.83;1744910;81;25769;-90
2021/11/03 05:46:50;;;;;;;16.85;10.80;;;;;;;3.87;78.74;96321.67;1734035;81;26735;-90
2021/11/03 05:49:21;;;;;;;16.80;9.65;;;;;;;3.82;78.73;96323.61;1736998;81;25767;-89
2021/11/03 05:51:49;;;;;;;13.03;9.90;;;;;;;3.80;78.82;96326.16;1741563;81;27383;-90
2021/11/03 05:54:18;;;;;;;13.53;9.80;;;;;;;3.76;78.84;96324.38;1735948;80;25834;-90
2021/11/03 05:56:46;;;;;;;17.35;10.65;;;;;;;3.76;78.94;96325.72;1726961;82;25757;-89
2021/11/03 05:59:15;;;;;;;18.52;10.50;;;;;;;3.77;78.90;96319.36;1733607;81;25953;-89
2021/11/03 06:01:42;;;;;;;18.73;11.43;;;;;;;3.73;78.81;96330.13;1727286;81;25728;-90
2021/11/03 06:04:08;;;;;;;14.90;11.03;;;;;;;3.70;78.92;96331.84;1729701;81;26907;-90
2021/11/03 06:06:37;;;;;;;17.05;11.63;;;;;;;3.70;79.02;96334.52;1729835;81;25740;-90
2021/11/03 06:09:08;;;;;;;17.70;11.33;;;;;;;3.73;79.03;96339.47;1726186;81;25776;-89
2021/11/03 06:11:38;;;;;;;14.60;10.55;;;;;;;3.69;78.88;96343.54;1720288;81;26097;-90
2021/11/03 06:14:06;;;;;;;20.23;12.28;;;;;;;3.67;79.01;96339.41;1721704;82;25830;-90
2021/11/03 06:16:33;;;;;;;19.90;14.05;;;;;;;3.70;79.17;96350.53;1719011;82;27409;-91
2021/11/03 06:19:00;;;;;;;17.20;13.18;;;;;;;3.72;79.18;96347.16;1731733;81;25924;-89
2021/11/03 06:21:27;;;;;;;18.90;13.65;;;;;;;3.75;79.29;96354.76;1730929;80;25891;-90
2021/11/03 06:23:53;;;;;;;19.73;13.50;;;;;;;3.83;79.33;96357.30;1722419;83;26044;-89
2021/11/03 06:26:22;;;;;;;21.07;14.28;;;;;;;3.84;79.25;96362.95;1719193;82;25773;-90
2021/11/03 06:28:50;;;;;;;21.95;15.45;;;;;;;3.87;79.25;96358.54;1722418;82;27420;-88
2021/11/03 06:31:17;;;;;;;22.95;16.30;;;;;;;3.85;79.24;96361.94;1720607;82;25892;-89
2021/11/03 06:33:44;;;;;;;20.65;13.32;;;;;;;3.82;79.32;96377.00;1745316;81;25761;-89
2021/11/03 06:36:15;;;;;;;22.02;14.87;;;;;;;3.88;79.64;96374.88;1719005;82;26870;-88
2021/11/03 06:38:42;;;;;;;25.72;16.45;;;;;;;3.95;79.85;96374.44;1723708;81;25717;-89
2021/11/03 06:41:12;;;;;;;19.52;13.32;;;;;;;4.03;79.96;96372.62;1725012;82;27426;-89
2021/11/03 06:43:38;;;;;;;17.48;11.10;;;;;;;4.09;80.05;96374.02;1724836;83;25744;-87
2021/11/03 06:46:05;;;;;;;13.62;8.83;;;;;;;4.16;80.22;96376.20;1724830;82;25729;-89
2021/11/03 06:48:32;;;;;;;13.72;8.70;;;;;;;4.26;80.42;96382.52;1744028;81;25827;-89
2021/11/03 06:50:59;;;;;;;12.47;8.53;;;;;;;4.37;80.50;96376.62;1724918;81;25777;-89
2021/11/03 06:53:26;;;;;;;10.25;6.97;;;;;;;4.50;80.49;96374.52;1724878;83;27361;-91
2021/11/03 06:55:55;;;;;;;8.45;6.78;;;;;;;4.64;80.49;96381.59;1724669;83;25804;-90
2021/11/03 06:58:22;;;;;;;17.87;9.53;;;;;;;4.79;80.51;96382.27;1745670;80;25848;-90
2021/11/03 07:00:52;;;;;;;21.95;11.55;;;;;;;4.88;80.54;96387.75;1724981;83;25963;-90
2021/11/03 07:03:22;;;;;;;20.92;11.95;;;;;;;4.94;80.50;96387.47;1742819;81;25791;-89
2021/11/03 07:05:49;;;;;;;10.53;7.22;;;;;;;5.01;80.40;96389.64;1725286;81;27232;-90
2021/11/03 07:08:17;;;;;;;14.63;9.60;;;;;;;5.11;80.24;96379.89;1735814;81;25968;-90
2021/11/03 07:10:47;;;;;;;15.32;9.70;;;;;;;5.19;80.40;96374.38;1726925;81;25722;-90
2021/11/03 07:13:16;;;;;;;15.72;10.00;;;;;;;5.27;80.46;96387.55;1727386;81;25840;-90
2021/11/03 07:15:43;;;;;;;16.50;10.43;;;;;;;5.34;80.53;96383.85;1727524;81;25599;-90
2021/11/03 07:18:11;;;;;;;16.15;10.18;;;;;;;5.43;80.30;96386.64;1727874;81;27456;-90
2021/11/03 07:20:42;;;;;;;12.40;7.40;;;;;;;5.52;80.37;96391.30;1727908;81;25764;-90
2021/11/03 07:23:09;;;;;;;11.55;7.97;;;;;;;5.63;80.06;96389.87;1731984;81;25724;-89
2021/11/03 07:25:36;;;;;;;9.03;6.20;;;;;;;5.75;80.01;96405.63;1749312;80;26443;-89
2021/11/03 07:28:02;;;;;;;7.10;5.05;;;;;;;5.87;79.88;96402.64;1733545;81;25685;-88
2021/11/03 07:30:32;;;;;;;7.80;5.12;;;;;;;6.00;79.50;96399.17;1736225;81;28363;-90
2021/11/03 07:32:59;;;;;;;7.33;5.20;;;;;;;6.18;79.12;96398.52;1727723;81;25701;-89
2021/11/03 07:35:26;;;;;;;9.70;4.87;;;;;;;6.30;79.00;96410.25;1740673;80;25290;-90
2021/11/03 07:37:55;;;;;;;8.10;4.25;;;;;;;6.47;78.77;96406.11;1729436;81;26046;-90
2021/11/03 07:40:26;;;;;;;5.85;4.87;;;;;;;6.65;78.54;96408.11;1728679;81;25736;-91
2021/11/03 07:42:54;;;;;;;9.48;5.75;;;;;;;6.78;78.75;96407.55;1737596;81;27487;-90
2021/11/03 07:45:21;;;;;;;11.48;5.55;;;;;;;6.97;78.49;96419.78;1727937;81;25849;-89
2021/11/03 07:47:47;;;;;;;9.53;5.87;;;;;;;7.16;77.99;96413.49;1739208;81;25763;-90
2021/11/03 07:50:19;;;;;;;9.58;5.28;;;;;;;7.31;78.07;96420.75;1739080;81;26751;-90
2021/11/03 07:52:46;;;;;;;7.62;5.35;;;;;;;7.46;77.81;96425.32;1728083;81;25433;-90
2021/11/03 07:55:12;;;;;;;7.58;4.78;;;;;;;7.67;77.53;96428.70;1727711;81;26793;-90
2021/11/03 07:57:39;;;;;;;8.45;4.70;;;;;;;7.81;77.49;96427.57;1731150;81;25766;-90
2021/11/03 08:00:10;;;;;;;5.20;3.90;;;;;;;7.99;76.96;96426.28;1728357;81;26164;-89
2021/11/03 08:02:37;;;;;;;6.30;4.10;;;;;;;8.13;76.16;96431.86;1732808;81;26849;-89
2021/11/03 08:05:04;;;;;;;8.08;4.12;;;;;;;8.25;76.14;96418.52;1731544;81;25920;-89
2021/11/03 08:07:31;;;;;;;6.97;4.10;;;;;;;8.42;75.87;96423.69;1737036;81;27416;-90
2021/11/03 08:09:57;;;;;;;8.38;4.37;;;;;;;8.52;74.94;96425.34;1727240;81;26354;-90
2021/11/03 08:12:24;;;;;;;5.17;3.95;;;;;;;8.63;75.19;96432.67;1727380;82;25705;-90
2021/11/03 08:14:50;;;;;;;5.60;3.80;;;;;;;8.77;75.09;96433.36;1727514;83;26007;-90
2021/11/03 08:17:21;;;;;;;4.60;3.40;;;;;;;8.87;74.86;96424.76;1727303;81;25802;-89
2021/11/03 08:19:53;;;;;;;7.25;3.50;;;;;;;9.08;74.79;96432.89;1727489;81;27397;-89
2021/11/03 08:22:24;;;;;;;6.45;3.20;;;;;;;9.35;74.50;96432.88;1727115;81;25899;-90
2021/11/03 08:24:54;;;;;;;3.85;2.98;;;;;;;9.57;73.65;96433.20;1727720;81;25753;-89
2021/11/03 08:27:22;;;;;;;3.90;3.27;;;;;;;9.80;73.84;96437.84;1727681;81;26797;-90
2021/11/03 08:29:51;;;;;;;8.55;3.08;;;;;;;10.09;74.05;96432.42;1727466;81;25853;-90
2021/11/03 08:32:25;;;;;;;3.17;2.62;;;;;;;10.40;73.09;96425.91;1727586;81;27528;-89
2021/11/03 08:34:54;;;;;;;5.15;3.00;;;;;;;10.52;72.15;96426.44;1727476;82;25740;-89
2021/11/03 08:37:28;;;;;;;3.67;2.67;;;;;;;10.63;72.56;96429.66;1727613;82;25780;-89
2021/11/03 08:39:56;;;;;;;4.35;3.00;;;;;;;10.82;72.20;96420.39;1727616;81;26041;-88
2021/11/03 08:42:23;;;;;;;3.80;3.02;;;;;;;11.09;71.32;96418.00;1698689;83;25826;-89
2021/11/03 08:44:51;;;;;;;3.60;2.83;;;;;;;11.30;70.67;96419.23;1727654;82;27574;-89
2021/11/03 08:47:18;;;;;;;4.97;3.10;;;;;;;11.42;70.29;96419.48;1727480;82;26037;-90
2021/11/03 08:49:44;;;;;;;3.10;2.80;;;;;;;11.58;70.51;96411.15;1727754;82;25749;-90
2021/11/03 08:52:11;;;;;;;3.85;2.77;;;;;;;11.84;70.03;96411.91;1727826;81;25978;-91
2021/11/03 08:54:49;;;;;;;4.70;2.50;;;;;;;12.14;69.34;96412.16;1727865;82;25765;-90
2021/11/03 08:57:15;;;;;;;5.25;2.80;;;;;;;12.33;69.01;96414.91;1727702;82;28277;-90
2021/11/03 08:59:42;;;;;;;5.08;2.90;;;;;;;12.55;67.95;96413.64;1727579;81;25717;-90
2021/11/03 09:02:09;;;;;;;3.15;2.75;;;;;;;12.63;67.73;96411.33;1727604;81;26066;-90
2021/11/03 09:04:37;;;;;;;7.87;3.65;;;;;;;12.90;67.53;96406.56;1727630;81;26207;-92
2021/11/03 09:07:11;;;;;;;4.25;2.55;;;;;;;13.14;67.58;96403.94;1727491;81;25757;-90
2021/11/03 09:09:34;;;;;;;3.62;2.40;;;;;;;13.41;67.01;96408.58;1727270;81;27374;-89
2021/11/03 09:12:03;;;;;;;2.67;2.25;;;;;;;13.62;65.91;96414.53;1725101;82;25852;-90
2021/11/03 09:14:29;;;;;;;4.20;2.67;;;;;;;13.73;65.55;96416.28;1724953;82;26442;-89
2021/11/03 09:16:56;;;;;;;3.83;2.20;;;;;;;13.89;65.08;96422.66;1724879;83;25965;-89
2021/11/03 09:19:23;;;;;;;5.70;2.10;;;;;;;14.08;64.40;96417.17;1724898;81;25799;-91
2021/11/03 09:21:50;;;;;;;4.65;2.00;;;;;;;14.29;64.55;96416.27;1724954;82;27366;-89
2021/11/03 09:24:17;;;;;;;3.58;2.25;;;;;;;14.53;64.32;96416.77;1725026;83;26385;-91
2021/11/03 09:26:44;;;;;;;2.37;1.98;;;;;;;14.68;63.58;96414.16;1724845;82;25681;-89
2021/11/03 09:29:12;;;;;;;2.77;2.30;;;;;;;14.78;62.75;96410.15;1724942;83;26031;-89
2021/11/03 09:31:40;;;;;;;3.33;1.98;;;;;;;14.89;62.09;96412.39;1725100;81;25875;-90
2021/11/03 09:34:08;;;;;;;3.10;2.20;;;;;;;14.93;61.94;96420.84;1724974;81;27369;-88
2021/11/03 09:36:36;;;;;;;3.83;2.22;;;;;;;15.03;61.73;96424.97;1724984;83;25909;-90
2021/11/03 09:39:03;;;;;;;3.60;2.33;;;;;;;14.93;61.55;96416.22;1724964;81;25819;-89
2021/11/03 09:41:41;;;;;;;5.40;2.60;;;;;;;14.93;61.01;96415.41;1725119;81;26854;-89
2021/11/03 09:44:19;;;;;;;3.40;2.75;;;;;;;14.85;60.72;96409.94;1725104;82;25387;-89
2021/11/03 09:47:16;;;;;;;4.65;3.10;;;;;;;14.84;60.47;96412.91;1725070;82;27341;-88
2021/11/03 09:49:55;;;;;;;4.12;2.80;;;;;;;14.91;60.06;96414.84;1724990;81;25930;-88
2021/11/03 09:52:42;;;;;;;4.95;2.83;;;;;;;14.99;59.16;96409.72;1725199;81;26259;-89
2021/11/03 09:55:23;;;;;;;3.92;2.70;;;;;;;15.05;59.05;96405.97;1725130;82;25994;-89
2021/11/03 09:58:22;;;;;;;3.42;2.60;;;;;;;15.11;58.88;96396.74;1725090;82;25887;-89
2021/11/03 10:01:00;;;;;;;2.85;2.40;;;;;;;15.35;58.44;96403.92;1725107;82;27454;-85
2021/11/03 10:03:41;;;;;;;3.62;2.80;;;;;;;15.38;58.65;96394.42;1724866;81;25725;-88
2021/11/03 10:06:36;;;;;;;3.27;2.67;;;;;;;15.36;58.04;96396.05;1724999;83;25722;-89
2021/11/03 10:09:03;;;;;;;3.65;2.67;;;;;;;15.45;57.75;96390.39;1724997;81;26596;-88
2021/11/03 10:11:52;;;;;;;5.85;2.83;;;;;;;15.64;57.14;96385.84;1727059;82;25974;-88
2021/11/03 10:14:19;;;;;;;3.02;2.40;;;;;;;15.81;57.34;96386.44;1730528;82;29173;-91
2021/11/03 10:16:54;;;;;;;5.00;2.35;;;;;;;15.83;56.52;96391.04;1730409;82;25689;-89
2021/11/03 10:19:32;;;;;;;3.25;2.70;;;;;;;15.97;56.32;96398.97;1730550;81;25715;-92
2021/11/03 10:22:30;;;;;;;3.17;2.35;;;;;;;16.16;56.01;96393.83;1730415;82;26308;-91
2021/11/03 10:25:18;;;;;;;2.60;2.30;;;;;;;16.33;55.70;96393.55;1730497;81;25862;-90
2021/11/03 10:27:51;;;;;;;2.22;1.80;;;;;;;16.51;55.37;96388.39;1730233;81;27484;-90
2021/11/03 10:30:35;;;;;;;2.75;2.30;;;;;;;16.69;54.93;96384.30;1730184;81;26018;-91
2021/11/03 10:33:29;;;;;;;2.10;1.87;;;;;;;16.76;54.13;96376.67;1730503;82;26244;-91
2021/11/03 10:36:04;;;;;;;2.50;2.00;;;;;;;17.01;53.85;96385.34;1730596;81;26008;-89
2021/11/03 10:38:42;;;;;;;1.95;1.60;;;;;;;17.18;52.99;96375.45;1729349;81;25808;-91
2021/11/03 10:41:29;;;;;;;3.05;1.62;;;;;;;17.31;52.70;96381.69;1730600;81;27384;-91
2021/11/03 10:44:22;;;;;;;2.00;1.52;;;;;;;17.38;52.43;96376.77;1730401;81;26050;-91
2021/11/03 10:46:54;;;;;;;1.50;1.27;;;;;;;17.63;52.34;96378.02;1730493;81;25315;-91
2021/11/03 10:49:36;;;;;;;2.15;1.35;;;;;;;17.89;51.43;96381.97;1730876;82;34706;-92
2021/11/03 10:52:21;;;;;;;1.45;1.07;;;;;;;18.14;51.17;96376.34;1698732;82;25795;-92
2021/11/03 10:55:01;;;;;;;3.45;1.62;;;;;;;18.38;50.81;96379.16;1722284;82;27396;-92
2021/11/03 10:57:39;;;;;;;1.10;1.00;;;;;;;18.52;50.06;96377.95;1728873;82;25816;-91
2021/11/03 11:00:32;;;;;;;3.30;1.42;;;;;;;18.60;50.17;96379.54;1730245;81;25702;-93
2021/11/03 11:03:04;;;;;;;;;;;;;;;18.45;49.15;96374.75;1733023;81;27502;-89
2021/11/03 11:05:35;;;;;;;2.17;1.10;;;;;;;18.43;46.68;96366.84;1730797;82;25788;-92
2021/11/03 11:08:18;;;;;;;1.92;1.30;;;;;;;18.32;48.33;96363.38;1730515;81;28346;-91
2021/11/03 11:11:02;;;;;;;1.35;1.20;;;;;;;18.43;48.73;96362.73;1730271;81;25744;-93
2021/11/03 11:13:34;;;;;;;1.50;1.37;;;;;;;18.46;48.21;96351.80;1730124;81;25712;-92
2021/11/03 11:16:13;;;;;;;;;;;;;;;18.60;48.04;96347.30;1732141;82;26087;-92
2021/11/03 11:18:59;;;;;;;1.70;1.00;;;;;;;18.78;47.07;96340.30;1730652;81;25730;-93
2021/11/03 11:21:31;;;;;;;1.12;1.02;;;;;;;18.83;47.71;96335.61;1704359;81;27658;-92
2021/11/03 11:24:02;;;;;;;2.40;1.00;;;;;;;18.72;47.10;96323.12;1730479;81;32187;-92
2021/11/03 11:26:58;;;;;;;1.42;0.88;;;;;;;18.80;46.81;96319.78;1730756;82;25812;-92
2021/11/03 11:29:40;;;;;;;2.02;1.20;;;;;;;18.95;46.69;96330.55;1729810;81;26704;-93
2021/11/03 11:32:29;;;;;;;1.00;0.95;;;;;;;19.14;46.33;96321.58;1730154;81;25682;-93
2021/11/03 11:35:18;;;;;;;1.20;1.10;;;;;;;19.31;45.87;96330.13;1730526;82;27448;-93
2021/11/03 11:38:15;;;;;;;1.40;1.00;;;;;;;19.39;45.16;96321.27;1730229;81;25804;-92
2021/11/03 11:40:53;;;;;;;1.75;0.90;;;;;;;19.46;45.43;96320.34;1729936;81;25955;-93
2021/11/03 11:43:37;;;;;;;1.15;0.90;;;;;;;19.54;44.85;96308.78;1730383;81;25999;-93
2021/11/03 11:46:19;;;;;;;1.55;0.93;;;;;;;19.54;44.55;96307.41;1730016;81;25808;-92
2021/11/03 11:48:57;;;;;;;2.05;1.30;;;;;;;19.43;44.39;96309.45;1721440;81;27387;-91